Time;durP1;ratioP1;P1;durP2;ratioP2;P2;SDS_P1;SDS_P2;PMS_P1;PMS_P2;Temp;Humidity;BMP_temperature;BMP_pressure;BME280_temperature;BME280_humidity;BME280_pressure;Samples;Min_cycle;Max_cycle;Signal;HPM_P1;HPM_P2
2022/11/25 02:44:34;;;;;;;14.63;6.97;;;;;;;;;;1646270;87;21084;-64
2022/11/25 02:47:01;;;;;;;14.38;7.00;;;;;;;;;;1645870;87;21255;-66
2022/11/25 02:49:27;;;;;;;16.80;7.42;;;;;;;;;;1646287;87;21052;-66
2022/11/25 02:51:53;;;;;;;18.32;7.95;;;;;;;;;;1643338;87;21056;-66
2022/11/25 02:54:19;;;;;;;14.95;7.75;;;;;;;;;;1640772;87;21139;-65
2022/11/25 02:56:47;;;;;;;13.60;7.42;;;;;;;;;;1630490;86;21079;-66
2022/11/25 02:59:14;;;;;;;13.05;6.80;;;;;;;;;;1678250;85;21056;-66
2022/11/25 03:01:40;;;;;;;12.60;7.28;;;;;;;;;;1672334;85;21496;-66
2022/11/25 03:04:07;;;;;;;14.18;6.67;;;;;;;;;;1676936;85;21144;-66
2022/11/25 03:06:35;;;;;;;14.40;7.42;;;;;;;;;;1675984;84;21048;-65
2022/11/25 03:09:02;;;;;;;12.37;6.30;;;;;;;;;;1680019;85;21825;-65
2022/11/25 03:14:15;;;;;;;12.65;5.50;;;;;;;;;;1675521;83;21058;-64
2022/11/25 03:16:43;;;;;;;13.10;6.17;;;;;;;;;;1672682;85;21075;-65
2022/11/25 03:19:09;;;;;;;15.60;7.47;;;;;;;;;;1672722;85;21008;-64
2022/11/25 03:21:36;;;;;;;14.07;7.90;;;;;;;;;;1680060;85;21072;-65
2022/11/25 03:24:02;;;;;;;13.65;6.72;;;;;;;;;;1677079;85;21551;-65
2022/11/25 03:26:28;;;;;;;15.45;7.10;;;;;;;;;;1663338;85;21052;-65
2022/11/25 03:28:55;;;;;;;11.83;6.47;;;;;;;;;;1676142;85;21570;-65
2022/11/25 03:31:21;;;;;;;15.23;7.05;;;;;;;;;;1674471;84;21088;-65
2022/11/25 03:33:47;;;;;;;14.03;7.72;;;;;;;;;;1666294;85;21039;-65
2022/11/25 03:36:14;;;;;;;16.45;8.28;;;;;;;;;;1671229;85;21495;-65
2022/11/25 03:38:40;;;;;;;17.23;8.58;;;;;;;;;;1662787;85;21065;-65
2022/11/25 03:41:06;;;;;;;13.10;7.17;;;;;;;;;;1673959;85;21044;-65
2022/11/25 03:43:34;;;;;;;17.73;7.92;;;;;;;;;;1665470;84;21628;-65
2022/11/25 03:46:01;;;;;;;15.05;8.28;;;;;;;;;;1635768;85;21094;-65
2022/11/25 03:48:27;;;;;;;16.62;7.55;;;;;;;;;;1676819;83;21567;-65
2022/11/25 03:50:54;;;;;;;13.25;5.97;;;;;;;;;;1630711;86;21088;-65
2022/11/25 03:53:22;;;;;;;15.63;8.00;;;;;;;;;;1625510;87;21575;-65
2022/11/25 03:55:49;;;;;;;12.37;6.05;;;;;;;;;;1624750;86;21155;-65
2022/11/25 03:58:16;;;;;;;13.05;6.80;;;;;;;;;;1628494;87;21583;-65
2022/11/25 04:00:43;;;;;;;14.80;6.83;;;;;;;;;;1624784;86;21080;-65
2022/11/25 04:03:09;;;;;;;13.80;7.15;;;;;;;;;;1676239;84;21053;-65
2022/11/25 04:05:35;;;;;;;15.53;7.72;;;;;;;;;;1633593;87;21086;-64
2022/11/25 04:08:03;;;;;;;15.13;7.65;;;;;;;;;;1624488;87;21136;-65
2022/11/25 04:10:30;;;;;;;13.98;7.17;;;;;;;;;;1627271;87;21072;-65
2022/11/25 04:12:58;;;;;;;12.85;6.80;;;;;;;;;;1628689;86;21115;-65
2022/11/25 04:15:27;;;;;;;18.10;7.08;;;;;;;;;;1662357;85;21614;-64
2022/11/25 04:17:55;;;;;;;14.10;6.95;;;;;;;;;;1670039;85;21059;-64
2022/11/25 04:20:21;;;;;;;16.32;7.35;;;;;;;;;;1664658;85;21051;-64
2022/11/25 04:22:49;;;;;;;14.90;7.03;;;;;;;;;;1655647;85;21055;-64
2022/11/25 04:25:17;;;;;;;13.83;7.45;;;;;;;;;;1673930;85;21614;-65
2022/11/25 04:27:43;;;;;;;15.28;6.80;;;;;;;;;;1656388;85;21031;-64
2022/11/25 04:30:11;;;;;;;14.00;7.55;;;;;;;;;;1633098;85;20992;-65
2022/11/25 04:32:38;;;;;;;14.65;6.60;;;;;;;;;;1655055;85;21104;-65
2022/11/25 04:35:06;;;;;;;12.30;7.08;;;;;;;;;;1658174;84;21036;-65
2022/11/25 04:37:33;;;;;;;17.10;7.83;;;;;;;;;;1648771;85;21055;-66
2022/11/25 04:39:59;;;;;;;12.73;6.78;;;;;;;;;;1649475;87;21005;-65
2022/11/25 04:42:38;;;;;;;12.45;6.45;;;;;;;;;;1651711;85;21570;-65
2022/11/25 04:45:08;;;;;;;12.60;6.65;;;;;;;;;;1659216;84;21183;-64
2022/11/25 04:47:34;;;;;;;12.65;6.53;;;;;;;;;;1649115;84;21582;-65
2022/11/25 04:50:01;;;;;;;12.28;6.75;;;;;;;;;;1647631;85;21116;-65
2022/11/25 04:52:27;;;;;;;13.22;6.67;;;;;;;;;;1653036;86;21009;-65
2022/11/25 04:54:53;;;;;;;11.10;5.75;;;;;;;;;;1672547;84;21613;-65
2022/11/25 04:57:21;;;;;;;11.93;6.05;;;;;;;;;;1662941;85;21049;-64
2022/11/25 04:59:47;;;;;;;12.98;6.58;;;;;;;;;;1684454;83;21076;-65
2022/11/25 05:02:14;;;;;;;14.95;6.42;;;;;;;;;;1659212;85;21039;-65
2022/11/25 05:04:43;;;;;;;12.30;6.42;;;;;;;;;;1654435;86;21065;-64
2022/11/25 05:07:10;;;;;;;10.90;6.15;;;;;;;;;;1647126;85;22031;-64
2022/11/25 05:09:36;;;;;;;10.90;5.70;;;;;;;;;;1657231;85;21087;-64
2022/11/25 05:12:08;;;;;;;10.18;5.58;;;;;;;;;;1652188;85;21504;-64
2022/11/25 05:14:35;;;;;;;10.03;5.40;;;;;;;;;;1651632;86;21075;-64
2022/11/25 05:17:02;;;;;;;11.22;5.62;;;;;;;;;;1653165;84;21021;-64
2022/11/25 05:19:29;;;;;;;12.20;5.08;;;;;;;;;;1632349;86;21087;-65
2022/11/25 05:21:56;;;;;;;10.32;5.12;;;;;;;;;;1643691;84;21032;-65
2022/11/25 05:24:24;;;;;;;10.28;5.10;;;;;;;;;;1647079;86;21096;-65
2022/11/25 05:26:50;;;;;;;11.38;5.95;;;;;;;;;;1654076;84;21080;-65
2022/11/25 05:29:54;;;;;;;9.53;5.40;;;;;;;;;;1665497;84;21051;-64
2022/11/25 05:32:29;;;;;;;11.12;5.87;;;;;;;;;;1654372;83;21798;-64
2022/11/25 05:35:11;;;;;;;12.20;5.92;;;;;;;;;;1643367;84;21211;-64
2022/11/25 05:37:52;;;;;;;10.23;5.35;;;;;;;;;;1636212;84;21095;-64
2022/11/25 05:40:35;;;;;;;9.48;5.05;;;;;;;;;;1642576;86;21633;-64
2022/11/25 05:43:15;;;;;;;11.35;5.33;;;;;;;;;;1643800;85;21067;-64
2022/11/25 17:51:18;;;;;;;16.50;8.70;;;;;;;;;;1785058;80;28626;-67
2022/11/25 17:53:46;;;;;;;12.40;7.30;;;;;;;;;;1761661;80;20972;-66
2022/11/25 17:56:26;;;;;;;14.70;7.15;;;;;;;;;;1761586;81;21028;-66
2022/11/25 17:58:52;;;;;;;14.70;7.03;;;;;;;;;;1760983;80;21547;-66
2022/11/25 18:01:19;;;;;;;10.82;5.90;;;;;;;;;;1756454;80;21589;-66
2022/11/25 18:03:48;;;;;;;8.85;4.95;;;;;;;;;;1766386;81;21557;-67
2022/11/25 18:06:13;;;;;;;9.58;5.15;;;;;;;;;;1761431;81;21020;-68
2022/11/25 18:08:39;;;;;;;9.58;5.30;;;;;;;;;;1750820;80;21161;-70
2022/11/25 18:11:06;;;;;;;9.88;5.78;;;;;;;;;;1752387;80;21052;-67
2022/11/25 18:13:35;;;;;;;12.55;6.80;;;;;;;;;;1759127;81;21045;-66
2022/11/25 18:16:04;;;;;;;10.95;5.70;;;;;;;;;;1767320;80;21574;-66
2022/11/25 18:18:30;;;;;;;11.53;5.70;;;;;;;;;;1760109;81;21526;-67
2022/11/25 18:20:56;;;;;;;10.98;6.53;;;;;;;;;;1748787;80;21017;-66
2022/11/25 18:23:23;;;;;;;10.18;5.20;;;;;;;;;;1750353;81;21064;-67
2022/11/25 18:25:49;;;;;;;11.00;5.28;;;;;;;;;;1754775;80;21067;-67
2022/11/25 18:28:16;;;;;;;10.35;5.12;;;;;;;;;;1754250;81;21080;-67
2022/11/25 18:30:43;;;;;;;9.20;5.47;;;;;;;;;;1742482;80;21044;-68
2022/11/25 18:33:12;;;;;;;11.12;5.60;;;;;;;;;;1756620;81;21005;-66
2022/11/25 18:35:39;;;;;;;7.12;4.37;;;;;;;;;;1721264;82;21039;-67
2022/11/25 18:38:06;;;;;;;10.25;5.17;;;;;;;;;;1763543;80;21054;-67
2022/11/25 18:40:33;;;;;;;10.18;5.67;;;;;;;;;;1740635;80;21047;-68
2022/11/25 18:43:00;;;;;;;9.73;5.55;;;;;;;;;;1727019;81;21031;-67
2022/11/25 18:45:26;;;;;;;8.15;4.87;;;;;;;;;;1788409;79;21056;-66
2022/11/25 18:47:53;;;;;;;9.00;4.62;;;;;;;;;;1776719;80;21531;-66
2022/11/25 18:50:20;;;;;;;8.33;4.78;;;;;;;;;;1786623;80;20988;-66
2022/11/25 18:52:47;;;;;;;11.30;5.97;;;;;;;;;;1778915;80;21320;-65
2022/11/25 18:55:15;;;;;;;12.35;6.35;;;;;;;;;;1770127;80;21078;-66
2022/11/25 18:57:44;;;;;;;10.38;5.85;;;;;;;;;;1762496;79;21008;-68
2022/11/25 19:00:12;;;;;;;9.90;5.62;;;;;;;;;;1789676;80;21004;-67
2022/11/25 19:02:39;;;;;;;8.60;5.75;;;;;;;;;;1749904;81;21050;-66
2022/11/25 19:05:11;;;;;;;10.90;5.50;;;;;;;;;;1755116;81;21063;-66
2022/11/25 19:07:37;;;;;;;6.90;4.62;;;;;;;;;;1745520;80;21003;-66
2022/11/25 19:10:04;;;;;;;8.30;4.92;;;;;;;;;;1757754;80;21083;-68
2022/11/25 19:12:31;;;;;;;11.03;4.92;;;;;;;;;;1770440;79;21025;-67
2022/11/25 19:14:57;;;;;;;8.05;4.97;;;;;;;;;;1787501;79;21035;-68
2022/11/25 19:17:24;;;;;;;9.10;4.55;;;;;;;;;;1791506;80;20965;-67
2022/11/25 19:19:51;;;;;;;8.33;4.65;;;;;;;;;;1784767;80;21526;-67
2022/11/25 19:22:17;;;;;;;7.85;4.65;;;;;;;;;;1791181;80;21044;-67
2022/11/25 19:24:47;;;;;;;5.87;4.17;;;;;;;;;;1787278;79;21087;-68
2022/11/25 19:27:15;;;;;;;9.08;4.30;;;;;;;;;;1781996;79;21023;-68
2022/11/25 19:29:42;;;;;;;8.28;5.58;;;;;;;;;;1781704;79;21511;-67
2022/11/25 19:32:18;;;;;;;8.85;5.17;;;;;;;;;;1779246;80;21096;-67
2022/11/25 19:34:45;;;;;;;7.58;4.40;;;;;;;;;;1777592;80;21557;-66
2022/11/25 19:37:15;;;;;;;8.88;4.62;;;;;;;;;;1777132;80;20928;-66
2022/11/25 19:39:42;;;;;;;10.68;5.70;;;;;;;;;;1784471;80;21499;-67
2022/11/25 19:42:09;;;;;;;7.92;5.22;;;;;;;;;;1746866;81;21101;-68
2022/11/25 19:44:36;;;;;;;13.22;7.10;;;;;;;;;;1753615;81;21016;-66
2022/11/25 19:47:03;;;;;;;8.90;6.47;;;;;;;;;;1756700;81;22223;-67
2022/11/25 19:49:29;;;;;;;10.25;5.87;;;;;;;;;;1756376;80;21044;-67
2022/11/25 19:51:55;;;;;;;10.72;6.85;;;;;;;;;;1752319;80;21027;-67
2022/11/25 19:54:22;;;;;;;12.33;6.03;;;;;;;;;;1759232;80;21088;-68
2022/11/25 20:09:23;;;;;;;9.00;5.97;;;;;;;;;;1849435;77;28340;-66
2022/11/25 20:11:55;;;;;;;7.95;5.25;;;;;;;;;;1852549;76;21070;-67
2022/11/25 20:14:18;;;;;;;11.28;6.65;;;;;;;;;;1816027;78;21561;-67
2022/11/25 20:16:45;;;;;;;11.35;6.67;;;;;;;;;;1826934;78;21507;-67
2022/11/25 20:19:13;;;;;;;11.28;6.50;;;;;;;;;;1852254;76;21495;-67
2022/11/25 20:21:41;;;;;;;16.30;8.85;;;;;;;;;;1809634;77;21028;-67
2022/11/25 20:24:12;;;;;;;11.33;6.42;;;;;;;;;;1845333;76;21478;-66
2022/11/25 20:26:39;;;;;;;11.83;6.65;;;;;;;;;;1858799;75;20983;-67
2022/11/25 20:29:15;;;;;;;8.30;5.42;;;;;;;;;;1852717;76;21028;-67
2022/11/25 20:31:41;;;;;;;6.58;3.72;;;;;;;;;;1844396;77;21054;-67
2022/11/25 20:34:07;;;;;;;7.17;4.20;;;;;;;;;;1842057;77;21039;-67
2022/11/25 20:36:33;;;;;;;7.22;3.30;;;;;;;;;;1847352;77;21014;-67
2022/11/25 20:39:00;;;;;;;4.58;2.70;;;;;;;;;;1823261;77;21028;-67
2022/11/25 20:41:27;;;;;;;4.70;2.72;;;;;;;;;;1858065;75;21059;-66
2022/11/25 20:43:53;;;;;;;4.35;2.70;;;;;;;;;;1864560;77;21004;-67
2022/11/25 20:46:21;;;;;;;4.37;2.55;;;;;;;;;;1850160;77;20988;-67
2022/11/25 20:48:48;;;;;;;3.45;2.30;;;;;;;;;;1857706;75;20921;-67
2022/11/25 20:51:16;;;;;;;3.75;2.47;;;;;;;;;;1842416;75;21557;-67
2022/11/25 20:53:43;;;;;;;4.50;3.17;;;;;;;;;;1831547;77;21014;-67
2022/11/25 20:56:11;;;;;;;4.53;2.77;;;;;;;;;;1860036;75;20914;-68
2022/11/25 20:58:38;;;;;;;4.37;3.15;;;;;;;;;;1854693;77;21028;-68
2022/11/25 21:01:05;;;;;;;5.22;2.77;;;;;;;;;;1827087;77;21487;-68
2022/11/25 21:03:32;;;;;;;3.85;2.50;;;;;;;;;;1830618;78;21022;-67
2022/11/25 21:05:58;;;;;;;4.37;2.58;;;;;;;;;;1830512;78;21026;-67
2022/11/25 21:08:25;;;;;;;3.55;2.37;;;;;;;;;;1832493;78;21097;-67
2022/11/25 21:10:52;;;;;;;3.35;2.30;;;;;;;;;;1814114;78;21088;-67
2022/11/25 21:13:26;;;;;;;4.60;2.95;;;;;;;;;;1816818;78;21042;-66
2022/11/25 21:15:53;;;;;;;3.98;2.60;;;;;;;;;;1838703;77;20917;-66
2022/11/25 21:18:20;;;;;;;5.75;3.35;;;;;;;;;;1819795;77;20980;-65
2022/11/25 21:20:46;;;;;;;4.80;2.67;;;;;;;;;;1835768;78;20965;-68
2022/11/25 21:23:19;;;;;;;4.17;2.80;;;;;;;;;;1827822;77;21030;-65
2022/11/25 21:25:46;;;;;;;3.98;2.98;;;;;;;;;;1828971;78;20990;-66
2022/11/25 21:28:14;;;;;;;5.42;2.72;;;;;;;;;;1823330;77;21612;-66
2022/11/25 21:30:40;;;;;;;6.12;3.80;;;;;;;;;;1812897;78;20981;-66
2022/11/25 21:33:08;;;;;;;4.95;3.58;;;;;;;;;;1831873;78;21047;-67
2022/11/25 21:35:34;;;;;;;4.78;3.12;;;;;;;;;;1831614;78;21086;-68
2022/11/25 21:38:01;;;;;;;5.97;3.60;;;;;;;;;;1830328;77;21034;-66
2022/11/25 21:40:31;;;;;;;4.15;2.90;;;;;;;;;;1810218;78;21469;-67
2022/11/25 21:42:57;;;;;;;6.70;3.10;;;;;;;;;;1817551;78;20986;-65
2022/11/25 21:45:23;;;;;;;5.80;3.17;;;;;;;;;;1832551;78;20991;-66
2022/11/25 21:47:49;;;;;;;4.60;2.67;;;;;;;;;;1803545;78;21506;-67
2022/11/25 21:50:16;;;;;;;3.33;2.50;;;;;;;;;;1804764;78;21523;-68
2022/11/25 21:52:42;;;;;;;3.70;2.80;;;;;;;;;;1811463;77;21714;-67
2022/11/25 21:55:11;;;;;;;4.08;2.52;;;;;;;;;;1814497;77;22353;-67
2022/11/25 21:57:38;;;;;;;4.30;2.80;;;;;;;;;;1814113;78;21038;-65
2022/11/25 22:00:06;;;;;;;4.85;3.27;;;;;;;;;;1828493;78;21039;-66
2022/11/25 22:02:32;;;;;;;6.78;3.72;;;;;;;;;;1741203;82;21039;-66
2022/11/25 22:04:59;;;;;;;3.80;2.85;;;;;;;;;;1760102;81;21144;-66
2022/11/25 22:07:26;;;;;;;5.30;3.15;;;;;;;;;;1763094;80;21542;-66
2022/11/25 22:09:53;;;;;;;4.47;3.25;;;;;;;;;;1761027;80;21074;-67
2022/11/25 22:12:21;;;;;;;4.05;2.80;;;;;;;;;;1798373;79;20975;-67
2022/11/25 22:14:48;;;;;;;5.80;2.75;;;;;;;;;;1784563;80;21023;-67
2022/11/25 22:17:15;;;;;;;4.90;3.20;;;;;;;;;;1783760;80;21079;-67
2022/11/25 22:19:42;;;;;;;3.72;2.52;;;;;;;;;;1781048;80;20985;-67
2022/11/25 22:22:12;;;;;;;6.08;3.20;;;;;;;;;;1760165;79;20961;-67
2022/11/25 22:24:38;;;;;;;4.75;2.75;;;;;;;;;;1803865;79;20963;-67
2022/11/25 22:27:07;;;;;;;5.75;2.72;;;;;;;;;;1770628;79;21086;-67
2022/11/25 22:29:34;;;;;;;4.80;2.90;;;;;;;;;;1814981;79;21012;-67
2022/11/25 22:32:00;;;;;;;6.28;3.40;;;;;;;;;;1804730;79;21052;-67
2022/11/25 22:34:26;;;;;;;5.33;3.20;;;;;;;;;;1763683;81;21066;-67
2022/11/25 22:36:52;;;;;;;4.85;3.05;;;;;;;;;;1771994;80;21578;-67
2022/11/25 22:39:25;;;;;;;5.58;3.05;;;;;;;;;;1783002;79;21012;-66
2022/11/25 22:41:53;;;;;;;4.70;2.95;;;;;;;;;;1768066;79;21504;-66
2022/11/25 22:44:20;;;;;;;5.15;3.20;;;;;;;;;;1765299;80;21035;-66
2022/11/25 22:46:46;;;;;;;4.20;2.80;;;;;;;;;;1771144;81;21058;-65
2022/11/25 22:49:24;;;;;;;5.05;2.90;;;;;;;;;;1766279;80;21099;-66
2022/11/25 22:51:50;;;;;;;5.53;3.12;;;;;;;;;;1775724;80;22057;-66
2022/11/25 22:54:16;;;;;;;6.33;3.45;;;;;;;;;;1774781;80;21070;-65
2022/11/25 22:56:42;;;;;;;4.47;3.30;;;;;;;;;;1765925;80;20971;-65
2022/11/25 22:59:09;;;;;;;4.90;2.80;;;;;;;;;;1764426;81;21110;-65
2022/11/25 23:01:35;;;;;;;5.47;3.42;;;;;;;;;;1790273;80;21040;-65
2022/11/25 23:04:02;;;;;;;4.95;3.00;;;;;;;;;;1783028;80;21021;-66
2022/11/25 23:06:28;;;;;;;4.70;3.05;;;;;;;;;;1771086;80;20992;-65
2022/11/25 23:08:54;;;;;;;4.47;2.55;;;;;;;;;;1801139;79;21106;-65
2022/11/25 23:11:20;;;;;;;4.28;2.87;;;;;;;;;;1804511;78;21506;-66
2022/11/25 23:13:50;;;;;;;5.85;3.00;;;;;;;;;;1805168;79;21078;-66
2022/11/25 23:16:16;;;;;;;4.25;3.02;;;;;;;;;;1802326;79;21011;-66
2022/11/25 23:18:44;;;;;;;5.97;3.55;;;;;;;;;;1819398;79;21032;-66
2022/11/25 23:21:15;;;;;;;5.55;3.30;;;;;;;;;;1806443;79;20976;-66
2022/11/25 23:23:41;;;;;;;6.83;3.60;;;;;;;;;;1793719;78;21051;-66
2022/11/25 23:26:08;;;;;;;5.83;3.42;;;;;;;;;;1799060;78;20972;-67
2022/11/25 23:28:36;;;;;;;7.40;4.17;;;;;;;;;;1797260;79;21063;-69
2022/11/25 23:31:03;;;;;;;7.37;3.55;;;;;;;;;;1792770;78;21096;-69
2022/11/25 23:33:31;;;;;;;5.30;3.52;;;;;;;;;;1809581;79;21519;-69
2022/11/25 23:35:57;;;;;;;7.42;3.45;;;;;;;;;;1794865;79;20953;-71
2022/11/25 23:38:25;;;;;;;4.67;2.95;;;;;;;;;;1795104;79;20988;-69
2022/11/25 23:40:51;;;;;;;3.58;2.65;;;;;;;;;;1815741;77;21032;-69
2022/11/25 23:43:17;;;;;;;4.75;2.90;;;;;;;;;;1760214;81;21035;-69
2022/11/25 23:45:48;;;;;;;6.10;3.30;;;;;;;;;;1766483;81;21405;-70
2022/11/25 23:48:14;;;;;;;5.22;3.42;;;;;;;;;;1800689;80;21020;-69
2022/11/25 23:50:41;;;;;;;5.28;3.37;;;;;;;;;;1803672;78;21067;-69
2022/11/25 23:53:09;;;;;;;3.90;3.10;;;;;;;;;;1797102;80;21028;-69
2022/11/25 23:55:36;;;;;;;5.67;2.85;;;;;;;;;;1789169;79;21038;-69
2022/11/25 23:58:02;;;;;;;4.08;2.47;;;;;;;;;;1817408;78;21515;-69
